Terminal Aerodrome Forecast
Issued by NWS

Home | Current Version | Previous Version | Text Only | Print | Product List | Glossary On
Versions: 1 2 3 4 5 6 7 8 9 10 11 12 13 14 15 16 17 18 19 20
000
FTUS46 KMTR 061128
TAFOAK
TAF
KOAK 061128Z 0612/0718 34005KT P6SM FEW020 BKN200
      TEMPO 0613/0616 SCT020
     FM062000 28008KT P6SM FEW050 FEW180
     FM070300 28006KT P6SM SCT150
     FM070700 06004KT P6SM BKN150
     FM071700 12005KT P6SM BKN100=

USA.gov is the U.S. government's official web portal to all federal, state and local government web resources and services.